sensor_id;sensor_type;location;lat;lon;timestamp;P1;durP1;ratioP1;P2;durP2;ratioP2
51556;SDS011;38766;53.194;5.532;2024-01-07T00:01:55;8.15;;;5.50;;
51556;SDS011;38766;53.194;5.532;2024-01-07T00:04:21;8.73;;;6.07;;
51556;SDS011;38766;53.194;5.532;2024-01-07T00:06:46;11.35;;;5.80;;
51556;SDS011;38766;53.194;5.532;2024-01-07T00:09:12;10.25;;;5.78;;
51556;SDS011;38766;53.194;5.532;2024-01-07T00:11:38;10.80;;;5.93;;
51556;SDS011;38766;53.194;5.532;2024-01-07T00:14:04;10.80;;;6.53;;
51556;SDS011;38766;53.194;5.532;2024-01-07T00:16:30;10.98;;;6.13;;
51556;SDS011;38766;53.194;5.532;2024-01-07T00:18:55;7.63;;;5.63;;
51556;SDS011;38766;53.194;5.532;2024-01-07T00:21:21;9.40;;;6.00;;
51556;SDS011;38766;53.194;5.532;2024-01-07T00:23:46;9.30;;;6.53;;
51556;SDS011;38766;53.194;5.532;2024-01-07T00:26:12;9.60;;;6.43;;
51556;SDS011;38766;53.194;5.532;2024-01-07T00:28:37;9.70;;;5.85;;
51556;SDS011;38766;53.194;5.532;2024-01-07T00:31:03;11.95;;;5.78;;
51556;SDS011;38766;53.194;5.532;2024-01-07T00:33:30;8.98;;;6.00;;
51556;SDS011;38766;53.194;5.532;2024-01-07T00:35:56;11.23;;;6.05;;
51556;SDS011;38766;53.194;5.532;2024-01-07T00:38:22;8.77;;;5.78;;
51556;SDS011;38766;53.194;5.532;2024-01-07T00:40:47;9.35;;;5.95;;
51556;SDS011;38766;53.194;5.532;2024-01-07T00:43:13;9.80;;;5.95;;
51556;SDS011;38766;53.194;5.532;2024-01-07T00:45:39;8.82;;;5.30;;
51556;SDS011;38766;53.194;5.532;2024-01-07T00:48:05;9.18;;;5.43;;
51556;SDS011;38766;53.194;5.532;2024-01-07T00:50:31;9.93;;;5.75;;
51556;SDS011;38766;53.194;5.532;2024-01-07T00:52:56;10.15;;;5.28;;
51556;SDS011;38766;53.194;5.532;2024-01-07T00:55:22;7.70;;;5.72;;
51556;SDS011;38766;53.194;5.532;2024-01-07T00:57:48;9.68;;;5.65;;
51556;SDS011;38766;53.194;5.532;2024-01-07T01:00:14;8.35;;;5.43;;
51556;SDS011;38766;53.194;5.532;2024-01-07T01:02:41;7.40;;;5.10;;
51556;SDS011;38766;53.194;5.532;2024-01-07T01:05:06;8.73;;;5.05;;
51556;SDS011;38766;53.194;5.532;2024-01-07T01:07:32;7.75;;;5.03;;
51556;SDS011;38766;53.194;5.532;2024-01-07T01:09:58;7.90;;;5.68;;
51556;SDS011;38766;53.194;5.532;2024-01-07T01:12:23;10.38;;;5.40;;
51556;SDS011;38766;53.194;5.532;2024-01-07T01:14:49;10.15;;;5.85;;
51556;SDS011;38766;53.194;5.532;2024-01-07T01:17:15;7.97;;;5.47;;
51556;SDS011;38766;53.194;5.532;2024-01-07T01:19:41;7.15;;;5.18;;
51556;SDS011;38766;53.194;5.532;2024-01-07T01:22:06;6.95;;;4.35;;
51556;SDS011;38766;53.194;5.532;2024-01-07T01:24:32;6.40;;;4.63;;
51556;SDS011;38766;53.194;5.532;2024-01-07T01:26:58;9.38;;;5.28;;
51556;SDS011;38766;53.194;5.532;2024-01-07T01:29:23;10.50;;;5.47;;
51556;SDS011;38766;53.194;5.532;2024-01-07T01:31:49;8.88;;;5.05;;
51556;SDS011;38766;53.194;5.532;2024-01-07T01:34:14;9.90;;;5.97;;
51556;SDS011;38766;53.194;5.532;2024-01-07T01:36:40;9.60;;;5.00;;
51556;SDS011;38766;53.194;5.532;2024-01-07T01:39:06;8.18;;;4.75;;
51556;SDS011;38766;53.194;5.532;2024-01-07T01:41:32;8.70;;;4.95;;
51556;SDS011;38766;53.194;5.532;2024-01-07T01:43:58;9.38;;;6.15;;
51556;SDS011;38766;53.194;5.532;2024-01-07T01:46:25;8.43;;;5.28;;
51556;SDS011;38766;53.194;5.532;2024-01-07T01:48:51;9.95;;;5.80;;
51556;SDS011;38766;53.194;5.532;2024-01-07T01:51:17;7.90;;;5.13;;
51556;SDS011;38766;53.194;5.532;2024-01-07T01:53:43;8.85;;;5.65;;
51556;SDS011;38766;53.194;5.532;2024-01-07T01:56:10;8.13;;;5.18;;
51556;SDS011;38766;53.194;5.532;2024-01-07T01:58:36;9.25;;;5.47;;
51556;SDS011;38766;53.194;5.532;2024-01-07T02:01:02;10.50;;;5.70;;
51556;SDS011;38766;53.194;5.532;2024-01-07T02:03:28;13.00;;;5.95;;
51556;SDS011;38766;53.194;5.532;2024-01-07T02:05:54;12.65;;;5.60;;
51556;SDS011;38766;53.194;5.532;2024-01-07T02:08:24;16.13;;;5.65;;
51556;SDS011;38766;53.194;5.532;2024-01-07T02:10:50;9.18;;;5.20;;
51556;SDS011;38766;53.194;5.532;2024-01-07T02:13:16;8.95;;;5.22;;
51556;SDS011;38766;53.194;5.532;2024-01-07T02:15:42;10.07;;;5.63;;
51556;SDS011;38766;53.194;5.532;2024-01-07T02:18:08;9.80;;;5.47;;
51556;SDS011;38766;53.194;5.532;2024-01-07T02:20:34;10.05;;;5.07;;
51556;SDS011;38766;53.194;5.532;2024-01-07T02:23:01;9.93;;;5.35;;
51556;SDS011;38766;53.194;5.532;2024-01-07T02:25:27;8.20;;;4.60;;
51556;SDS011;38766;53.194;5.532;2024-01-07T02:27:53;8.15;;;5.18;;
51556;SDS011;38766;53.194;5.532;2024-01-07T02:30:19;8.48;;;4.82;;
51556;SDS011;38766;53.194;5.532;2024-01-07T02:32:45;7.47;;;4.78;;
51556;SDS011;38766;53.194;5.532;2024-01-07T02:35:10;8.43;;;4.78;;
51556;SDS011;38766;53.194;5.532;2024-01-07T02:37:36;7.22;;;4.47;;
51556;SDS011;38766;53.194;5.532;2024-01-07T02:40:02;8.75;;;5.43;;
51556;SDS011;38766;53.194;5.532;2024-01-07T02:42:27;10.13;;;5.22;;
51556;SDS011;38766;53.194;5.532;2024-01-07T02:44:53;9.05;;;4.93;;
51556;SDS011;38766;53.194;5.532;2024-01-07T02:47:18;8.82;;;5.18;;
51556;SDS011;38766;53.194;5.532;2024-01-07T02:49:44;7.80;;;4.20;;
51556;SDS011;38766;53.194;5.532;2024-01-07T02:52:10;7.05;;;4.38;;
51556;SDS011;38766;53.194;5.532;2024-01-07T02:54:35;8.32;;;5.03;;
51556;SDS011;38766;53.194;5.532;2024-01-07T02:57:01;9.07;;;5.05;;
51556;SDS011;38766;53.194;5.532;2024-01-07T02:59:27;7.40;;;4.85;;
51556;SDS011;38766;53.194;5.532;2024-01-07T03:01:52;9.38;;;4.50;;
51556;SDS011;38766;53.194;5.532;2024-01-07T03:04:18;6.88;;;4.30;;
51556;SDS011;38766;53.194;5.532;2024-01-07T03:06:43;8.75;;;4.70;;
51556;SDS011;38766;53.194;5.532;2024-01-07T03:09:09;9.95;;;4.95;;
51556;SDS011;38766;53.194;5.532;2024-01-07T03:11:40;8.02;;;4.35;;
51556;SDS011;38766;53.194;5.532;2024-01-07T03:14:06;8.20;;;4.72;;
51556;SDS011;38766;53.194;5.532;2024-01-07T03:16:32;9.25;;;5.07;;
51556;SDS011;38766;53.194;5.532;2024-01-07T03:18:58;5.82;;;3.97;;
51556;SDS011;38766;53.194;5.532;2024-01-07T03:21:23;9.10;;;4.80;;
51556;SDS011;38766;53.194;5.532;2024-01-07T03:23:50;10.63;;;5.50;;
51556;SDS011;38766;53.194;5.532;2024-01-07T03:26:16;6.90;;;4.10;;
51556;SDS011;38766;53.194;5.532;2024-01-07T03:28:43;7.18;;;4.25;;
51556;SDS011;38766;53.194;5.532;2024-01-07T03:31:10;7.63;;;4.20;;
51556;SDS011;38766;53.194;5.532;2024-01-07T03:33:38;7.60;;;4.38;;
51556;SDS011;38766;53.194;5.532;2024-01-07T03:36:10;8.90;;;4.68;;
51556;SDS011;38766;53.194;5.532;2024-01-07T03:38:37;6.35;;;3.72;;
51556;SDS011;38766;53.194;5.532;2024-01-07T03:41:03;7.63;;;3.88;;
51556;SDS011;38766;53.194;5.532;2024-01-07T03:43:29;6.15;;;3.83;;
51556;SDS011;38766;53.194;5.532;2024-01-07T03:45:55;6.60;;;3.67;;
51556;SDS011;38766;53.194;5.532;2024-01-07T03:48:20;5.82;;;3.70;;
51556;SDS011;38766;53.194;5.532;2024-01-07T03:50:46;4.80;;;3.58;;
51556;SDS011;38766;53.194;5.532;2024-01-07T03:53:12;7.35;;;3.50;;
51556;SDS011;38766;53.194;5.532;2024-01-07T03:55:38;6.00;;;3.65;;
51556;SDS011;38766;53.194;5.532;2024-01-07T03:58:04;8.55;;;3.92;;
51556;SDS011;38766;53.194;5.532;2024-01-07T04:00:30;9.30;;;3.78;;
51556;SDS011;38766;53.194;5.532;2024-01-07T04:02:56;5.93;;;3.13;;
51556;SDS011;38766;53.194;5.532;2024-01-07T04:05:22;5.80;;;3.65;;
51556;SDS011;38766;53.194;5.532;2024-01-07T04:07:47;5.45;;;3.20;;
51556;SDS011;38766;53.194;5.532;2024-01-07T04:10:13;8.35;;;3.05;;
51556;SDS011;38766;53.194;5.532;2024-01-07T04:12:43;7.90;;;3.45;;
51556;SDS011;38766;53.194;5.532;2024-01-07T04:15:09;5.68;;;2.97;;
51556;SDS011;38766;53.194;5.532;2024-01-07T04:17:39;7.45;;;3.05;;
51556;SDS011;38766;53.194;5.532;2024-01-07T04:20:07;4.70;;;3.10;;
51556;SDS011;38766;53.194;5.532;2024-01-07T04:22:33;6.32;;;3.03;;
51556;SDS011;38766;53.194;5.532;2024-01-07T04:24:59;6.95;;;2.60;;
51556;SDS011;38766;53.194;5.532;2024-01-07T04:27:24;4.20;;;2.70;;
51556;SDS011;38766;53.194;5.532;2024-01-07T04:29:50;3.17;;;2.33;;
51556;SDS011;38766;53.194;5.532;2024-01-07T04:32:16;5.07;;;2.72;;
51556;SDS011;38766;53.194;5.532;2024-01-07T04:34:42;4.65;;;2.60;;
51556;SDS011;38766;53.194;5.532;2024-01-07T04:37:08;6.18;;;2.67;;
51556;SDS011;38766;53.194;5.532;2024-01-07T04:39:33;3.90;;;2.70;;
51556;SDS011;38766;53.194;5.532;2024-01-07T04:41:59;4.85;;;2.75;;
51556;SDS011;38766;53.194;5.532;2024-01-07T04:44:24;5.43;;;2.70;;
51556;SDS011;38766;53.194;5.532;2024-01-07T04:46:50;4.68;;;2.78;;
51556;SDS011;38766;53.194;5.532;2024-01-07T04:49:15;6.53;;;3.05;;
51556;SDS011;38766;53.194;5.532;2024-01-07T04:51:41;4.20;;;2.55;;
51556;SDS011;38766;53.194;5.532;2024-01-07T04:54:07;6.22;;;3.65;;
51556;SDS011;38766;53.194;5.532;2024-01-07T04:56:32;4.85;;;2.47;;
51556;SDS011;38766;53.194;5.532;2024-01-07T04:58:58;5.55;;;2.58;;
51556;SDS011;38766;53.194;5.532;2024-01-07T05:01:24;4.32;;;2.55;;
51556;SDS011;38766;53.194;5.532;2024-01-07T05:03:49;4.03;;;2.28;;
51556;SDS011;38766;53.194;5.532;2024-01-07T05:06:15;5.15;;;2.53;;
51556;SDS011;38766;53.194;5.532;2024-01-07T05:08:40;4.47;;;2.55;;
51556;SDS011;38766;53.194;5.532;2024-01-07T05:11:07;3.65;;;2.45;;
51556;SDS011;38766;53.194;5.532;2024-01-07T05:13:32;4.68;;;2.90;;
51556;SDS011;38766;53.194;5.532;2024-01-07T05:15:58;4.38;;;2.58;;
51556;SDS011;38766;53.194;5.532;2024-01-07T05:18:24;3.88;;;2.45;;
51556;SDS011;38766;53.194;5.532;2024-01-07T05:20:50;5.22;;;2.38;;
51556;SDS011;38766;53.194;5.532;2024-01-07T05:23:16;4.05;;;2.30;;
51556;SDS011;38766;53.194;5.532;2024-01-07T05:25:43;3.72;;;2.35;;
51556;SDS011;38766;53.194;5.532;2024-01-07T05:28:09;5.75;;;2.80;;
51556;SDS011;38766;53.194;5.532;2024-01-07T05:30:35;4.38;;;2.22;;
51556;SDS011;38766;53.194;5.532;2024-01-07T05:33:00;4.38;;;2.40;;
51556;SDS011;38766;53.194;5.532;2024-01-07T05:35:27;5.43;;;2.13;;
51556;SDS011;38766;53.194;5.532;2024-01-07T05:37:52;3.03;;;2.20;;
51556;SDS011;38766;53.194;5.532;2024-01-07T05:40:18;3.88;;;2.22;;
51556;SDS011;38766;53.194;5.532;2024-01-07T05:42:46;5.93;;;2.17;;
51556;SDS011;38766;53.194;5.532;2024-01-07T05:45:12;3.45;;;2.13;;
51556;SDS011;38766;53.194;5.532;2024-01-07T05:47:38;2.22;;;2.00;;
51556;SDS011;38766;53.194;5.532;2024-01-07T05:50:04;4.53;;;2.00;;
51556;SDS011;38766;53.194;5.532;2024-01-07T05:52:30;4.00;;;1.83;;
51556;SDS011;38766;53.194;5.532;2024-01-07T05:54:58;3.70;;;2.20;;
51556;SDS011;38766;53.194;5.532;2024-01-07T05:57:24;2.25;;;1.98;;
51556;SDS011;38766;53.194;5.532;2024-01-07T05:59:50;3.80;;;2.10;;
51556;SDS011;38766;53.194;5.532;2024-01-07T06:02:16;5.55;;;2.05;;
51556;SDS011;38766;53.194;5.532;2024-01-07T06:04:42;3.50;;;1.75;;
51556;SDS011;38766;53.194;5.532;2024-01-07T06:07:08;4.78;;;1.83;;
51556;SDS011;38766;53.194;5.532;2024-01-07T06:09:34;3.83;;;2.08;;
51556;SDS011;38766;53.194;5.532;2024-01-07T06:11:59;2.80;;;1.88;;
51556;SDS011;38766;53.194;5.532;2024-01-07T06:14:26;3.95;;;1.77;;
51556;SDS011;38766;53.194;5.532;2024-01-07T06:16:51;2.55;;;1.60;;
51556;SDS011;38766;53.194;5.532;2024-01-07T06:19:17;3.55;;;1.85;;
51556;SDS011;38766;53.194;5.532;2024-01-07T06:21:43;4.38;;;2.08;;
51556;SDS011;38766;53.194;5.532;2024-01-07T06:24:09;6.43;;;1.83;;
51556;SDS011;38766;53.194;5.532;2024-01-07T06:26:35;2.83;;;1.92;;
51556;SDS011;38766;53.194;5.532;2024-01-07T06:29:01;5.22;;;2.13;;
51556;SDS011;38766;53.194;5.532;2024-01-07T06:31:26;4.00;;;2.08;;
51556;SDS011;38766;53.194;5.532;2024-01-07T06:33:52;5.88;;;1.90;;
51556;SDS011;38766;53.194;5.532;2024-01-07T06:36:18;4.13;;;1.92;;
51556;SDS011;38766;53.194;5.532;2024-01-07T06:38:43;4.78;;;2.00;;
51556;SDS011;38766;53.194;5.532;2024-01-07T06:41:09;2.97;;;1.80;;
51556;SDS011;38766;53.194;5.532;2024-01-07T06:43:37;2.63;;;1.80;;
51556;SDS011;38766;53.194;5.532;2024-01-07T06:46:04;2.92;;;1.80;;
51556;SDS011;38766;53.194;5.532;2024-01-07T06:48:29;2.25;;;1.83;;
51556;SDS011;38766;53.194;5.532;2024-01-07T06:50:55;2.28;;;1.50;;
51556;SDS011;38766;53.194;5.532;2024-01-07T06:53:22;1.88;;;1.40;;
51556;SDS011;38766;53.194;5.532;2024-01-07T06:55:47;2.80;;;1.65;;
51556;SDS011;38766;53.194;5.532;2024-01-07T06:58:13;2.67;;;1.80;;
51556;SDS011;38766;53.194;5.532;2024-01-07T07:00:38;2.97;;;1.80;;
51556;SDS011;38766;53.194;5.532;2024-01-07T07:03:04;2.72;;;1.30;;
51556;SDS011;38766;53.194;5.532;2024-01-07T07:05:33;6.30;;;2.05;;
51556;SDS011;38766;53.194;5.532;2024-01-07T07:07:58;2.85;;;1.70;;
51556;SDS011;38766;53.194;5.532;2024-01-07T07:10:24;2.80;;;1.65;;
51556;SDS011;38766;53.194;5.532;2024-01-07T07:12:50;2.25;;;1.65;;
51556;SDS011;38766;53.194;5.532;2024-01-07T07:15:16;3.85;;;2.15;;
51556;SDS011;38766;53.194;5.532;2024-01-07T07:17:42;2.95;;;1.83;;
51556;SDS011;38766;53.194;5.532;2024-01-07T07:20:08;2.65;;;1.48;;
51556;SDS011;38766;53.194;5.532;2024-01-07T07:22:34;2.10;;;1.88;;
51556;SDS011;38766;53.194;5.532;2024-01-07T07:24:59;5.18;;;1.70;;
51556;SDS011;38766;53.194;5.532;2024-01-07T07:27:25;4.22;;;1.85;;
51556;SDS011;38766;53.194;5.532;2024-01-07T07:29:51;2.55;;;1.70;;
51556;SDS011;38766;53.194;5.532;2024-01-07T07:32:16;3.03;;;1.60;;
51556;SDS011;38766;53.194;5.532;2024-01-07T07:34:43;4.00;;;1.80;;
51556;SDS011;38766;53.194;5.532;2024-01-07T07:37:08;4.10;;;1.90;;
51556;SDS011;38766;53.194;5.532;2024-01-07T07:39:35;2.45;;;1.80;;
51556;SDS011;38766;53.194;5.532;2024-01-07T07:42:01;2.15;;;1.60;;
51556;SDS011;38766;53.194;5.532;2024-01-07T07:44:26;5.15;;;2.25;;
51556;SDS011;38766;53.194;5.532;2024-01-07T07:46:52;3.60;;;1.73;;
51556;SDS011;38766;53.194;5.532;2024-01-07T07:49:17;1.83;;;1.60;;
51556;SDS011;38766;53.194;5.532;2024-01-07T07:51:43;4.90;;;2.03;;
51556;SDS011;38766;53.194;5.532;2024-01-07T07:54:09;1.80;;;1.70;;
51556;SDS011;38766;53.194;5.532;2024-01-07T07:56:35;4.82;;;2.03;;
51556;SDS011;38766;53.194;5.532;2024-01-07T07:59:01;4.10;;;2.00;;
51556;SDS011;38766;53.194;5.532;2024-01-07T08:01:27;2.58;;;2.10;;
51556;SDS011;38766;53.194;5.532;2024-01-07T08:03:53;5.82;;;2.70;;
51556;SDS011;38766;53.194;5.532;2024-01-07T08:06:19;3.03;;;2.15;;
51556;SDS011;38766;53.194;5.532;2024-01-07T08:08:45;4.75;;;1.80;;
51556;SDS011;38766;53.194;5.532;2024-01-07T08:11:10;3.30;;;2.22;;
51556;SDS011;38766;53.194;5.532;2024-01-07T08:13:36;2.60;;;1.98;;
51556;SDS011;38766;53.194;5.532;2024-01-07T08:16:03;3.33;;;2.00;;
51556;SDS011;38766;53.194;5.532;2024-01-07T08:18:30;4.93;;;2.17;;
51556;SDS011;38766;53.194;5.532;2024-01-07T08:20:56;2.47;;;1.83;;
51556;SDS011;38766;53.194;5.532;2024-01-07T08:23:22;5.95;;;2.13;;
51556;SDS011;38766;53.194;5.532;2024-01-07T08:25:48;3.28;;;1.80;;
51556;SDS011;38766;53.194;5.532;2024-01-07T08:28:13;3.53;;;2.30;;
51556;SDS011;38766;53.194;5.532;2024-01-07T08:30:39;4.07;;;2.13;;
51556;SDS011;38766;53.194;5.532;2024-01-07T08:33:05;6.78;;;2.40;;
51556;SDS011;38766;53.194;5.532;2024-01-07T08:35:30;2.78;;;1.92;;
51556;SDS011;38766;53.194;5.532;2024-01-07T08:37:56;4.55;;;1.98;;
51556;SDS011;38766;53.194;5.532;2024-01-07T08:40:22;6.38;;;2.20;;
51556;SDS011;38766;53.194;5.532;2024-01-07T08:42:48;3.03;;;2.13;;
51556;SDS011;38766;53.194;5.532;2024-01-07T08:45:13;3.38;;;2.20;;
51556;SDS011;38766;53.194;5.532;2024-01-07T08:47:39;2.95;;;2.33;;
51556;SDS011;38766;53.194;5.532;2024-01-07T08:50:05;3.28;;;2.45;;
51556;SDS011;38766;53.194;5.532;2024-01-07T08:52:30;4.68;;;2.90;;
51556;SDS011;38766;53.194;5.532;2024-01-07T08:54:56;3.50;;;2.40;;
51556;SDS011;38766;53.194;5.532;2024-01-07T08:57:22;3.08;;;2.22;;
51556;SDS011;38766;53.194;5.532;2024-01-07T08:59:47;4.70;;;2.85;;
51556;SDS011;38766;53.194;5.532;2024-01-07T09:02:13;3.63;;;2.30;;
51556;SDS011;38766;53.194;5.532;2024-01-07T09:04:39;5.30;;;2.97;;
51556;SDS011;38766;53.194;5.532;2024-01-07T09:07:04;4.63;;;2.50;;
51556;SDS011;38766;53.194;5.532;2024-01-07T09:09:30;3.65;;;2.50;;
51556;SDS011;38766;53.194;5.532;2024-01-07T09:11:55;2.95;;;2.17;;
51556;SDS011;38766;53.194;5.532;2024-01-07T09:14:22;3.17;;;2.30;;
51556;SDS011;38766;53.194;5.532;2024-01-07T09:16:50;8.23;;;2.78;;
51556;SDS011;38766;53.194;5.532;2024-01-07T09:19:15;7.72;;;2.70;;
51556;SDS011;38766;53.194;5.532;2024-01-07T09:21:42;4.95;;;2.95;;
51556;SDS011;38766;53.194;5.532;2024-01-07T09:24:08;5.90;;;2.60;;
51556;SDS011;38766;53.194;5.532;2024-01-07T09:26:34;3.80;;;2.78;;
51556;SDS011;38766;53.194;5.532;2024-01-07T09:29:00;4.13;;;2.55;;
51556;SDS011;38766;53.194;5.532;2024-01-07T09:31:26;6.05;;;3.58;;
51556;SDS011;38766;53.194;5.532;2024-01-07T09:33:52;8.90;;;4.40;;
51556;SDS011;38766;53.194;5.532;2024-01-07T09:36:18;4.88;;;3.05;;
51556;SDS011;38766;53.194;5.532;2024-01-07T09:38:43;5.25;;;2.67;;
51556;SDS011;38766;53.194;5.532;2024-01-07T09:41:09;4.07;;;2.63;;
51556;SDS011;38766;53.194;5.532;2024-01-07T09:43:35;4.90;;;3.40;;
51556;SDS011;38766;53.194;5.532;2024-01-07T09:46:02;6.50;;;4.00;;
51556;SDS011;38766;53.194;5.532;2024-01-07T09:48:28;11.40;;;5.78;;
51556;SDS011;38766;53.194;5.532;2024-01-07T09:50:55;8.20;;;5.32;;
51556;SDS011;38766;53.194;5.532;2024-01-07T09:53:23;10.85;;;6.25;;
51556;SDS011;38766;53.194;5.532;2024-01-07T09:55:54;13.55;;;7.13;;
51556;SDS011;38766;53.194;5.532;2024-01-07T10:00:53;9.13;;;4.32;;
51556;SDS011;38766;53.194;5.532;2024-01-07T10:03:19;11.68;;;6.45;;
51556;SDS011;38766;53.194;5.532;2024-01-07T10:05:45;11.45;;;5.07;;
51556;SDS011;38766;53.194;5.532;2024-01-07T10:08:11;6.28;;;3.50;;
51556;SDS011;38766;53.194;5.532;2024-01-07T10:10:36;4.05;;;3.05;;
51556;SDS011;38766;53.194;5.532;2024-01-07T10:13:03;4.43;;;2.85;;
51556;SDS011;38766;53.194;5.532;2024-01-07T10:15:28;3.60;;;2.40;;
51556;SDS011;38766;53.194;5.532;2024-01-07T10:18:02;4.32;;;2.33;;
51556;SDS011;38766;53.194;5.532;2024-01-07T10:20:29;4.38;;;2.22;;
51556;SDS011;38766;53.194;5.532;2024-01-07T10:22:57;4.22;;;2.03;;
51556;SDS011;38766;53.194;5.532;2024-01-07T10:25:23;3.40;;;2.22;;
51556;SDS011;38766;53.194;5.532;2024-01-07T10:27:48;2.72;;;2.05;;
51556;SDS011;38766;53.194;5.532;2024-01-07T10:30:15;4.43;;;2.50;;
51556;SDS011;38766;53.194;5.532;2024-01-07T10:32:42;8.65;;;4.03;;
51556;SDS011;38766;53.194;5.532;2024-01-07T10:35:08;7.65;;;3.33;;
51556;SDS011;38766;53.194;5.532;2024-01-07T10:37:41;6.45;;;3.00;;
51556;SDS011;38766;53.194;5.532;2024-01-07T10:40:07;5.05;;;2.35;;
51556;SDS011;38766;53.194;5.532;2024-01-07T10:42:36;5.32;;;2.72;;
51556;SDS011;38766;53.194;5.532;2024-01-07T10:45:04;3.45;;;2.20;;
51556;SDS011;38766;53.194;5.532;2024-01-07T10:47:30;2.58;;;2.20;;
51556;SDS011;38766;53.194;5.532;2024-01-07T10:49:59;6.28;;;2.30;;
51556;SDS011;38766;53.194;5.532;2024-01-07T10:52:27;4.40;;;2.25;;
51556;SDS011;38766;53.194;5.532;2024-01-07T10:54:56;3.60;;;1.80;;
51556;SDS011;38766;53.194;5.532;2024-01-07T10:57:34;3.90;;;2.17;;
51556;SDS011;38766;53.194;5.532;2024-01-07T11:00:06;2.53;;;2.10;;
51556;SDS011;38766;53.194;5.532;2024-01-07T11:02:37;3.38;;;2.17;;
51556;SDS011;38766;53.194;5.532;2024-01-07T11:05:17;6.18;;;2.42;;
51556;SDS011;38766;53.194;5.532;2024-01-07T11:08:34;3.42;;;2.25;;
51556;SDS011;38766;53.194;5.532;2024-01-07T11:11:03;3.72;;;2.05;;
51556;SDS011;38766;53.194;5.532;2024-01-07T11:16:03;4.07;;;2.25;;
51556;SDS011;38766;53.194;5.532;2024-01-07T11:18:38;6.05;;;2.95;;
51556;SDS011;38766;53.194;5.532;2024-01-07T11:21:05;2.83;;;2.13;;
51556;SDS011;38766;53.194;5.532;2024-01-07T11:23:42;4.55;;;2.22;;
51556;SDS011;38766;53.194;5.532;2024-01-07T11:26:08;4.43;;;2.20;;
51556;SDS011;38766;53.194;5.532;2024-01-07T11:28:51;3.20;;;2.17;;
51556;SDS011;38766;53.194;5.532;2024-01-07T11:31:26;2.35;;;1.90;;
51556;SDS011;38766;53.194;5.532;2024-01-07T11:34:09;4.05;;;1.90;;
51556;SDS011;38766;53.194;5.532;2024-01-07T11:36:36;7.90;;;2.30;;
51556;SDS011;38766;53.194;5.532;2024-01-07T11:39:02;5.75;;;2.60;;
51556;SDS011;38766;53.194;5.532;2024-01-07T11:41:29;8.90;;;4.95;;
51556;SDS011;38766;53.194;5.532;2024-01-07T11:43:58;32.58;;;11.68;;
51556;SDS011;38766;53.194;5.532;2024-01-07T11:46:25;16.30;;;6.63;;
51556;SDS011;38766;53.194;5.532;2024-01-07T11:48:55;29.35;;;10.35;;
51556;SDS011;38766;53.194;5.532;2024-01-07T11:51:26;13.25;;;5.68;;
51556;SDS011;38766;53.194;5.532;2024-01-07T11:54:00;13.52;;;6.55;;
51556;SDS011;38766;53.194;5.532;2024-01-07T11:56:26;7.53;;;3.88;;
51556;SDS011;38766;53.194;5.532;2024-01-07T11:58:52;15.48;;;6.60;;
51556;SDS011;38766;53.194;5.532;2024-01-07T12:01:18;5.90;;;3.88;;
51556;SDS011;38766;53.194;5.532;2024-01-07T12:03:44;3.78;;;2.30;;
51556;SDS011;38766;53.194;5.532;2024-01-07T12:06:10;8.00;;;2.60;;
51556;SDS011;38766;53.194;5.532;2024-01-07T12:08:42;2.50;;;2.13;;
51556;SDS011;38766;53.194;5.532;2024-01-07T12:11:12;4.07;;;2.30;;
51556;SDS011;38766;53.194;5.532;2024-01-07T12:13:38;7.13;;;3.88;;
51556;SDS011;38766;53.194;5.532;2024-01-07T12:16:05;15.68;;;7.07;;
51556;SDS011;38766;53.194;5.532;2024-01-07T12:18:31;22.42;;;10.68;;
51556;SDS011;38766;53.194;5.532;2024-01-07T12:20:57;18.80;;;8.43;;
51556;SDS011;38766;53.194;5.532;2024-01-07T12:23:25;7.20;;;3.83;;
51556;SDS011;38766;53.194;5.532;2024-01-07T12:25:54;10.10;;;4.43;;
51556;SDS011;38766;53.194;5.532;2024-01-07T12:28:21;7.60;;;4.43;;
51556;SDS011;38766;53.194;5.532;2024-01-07T12:30:49;12.13;;;5.13;;
51556;SDS011;38766;53.194;5.532;2024-01-07T12:33:16;7.53;;;3.30;;
51556;SDS011;38766;53.194;5.532;2024-01-07T12:35:44;3.28;;;2.40;;
51556;SDS011;38766;53.194;5.532;2024-01-07T12:38:11;6.15;;;3.35;;
51556;SDS011;38766;53.194;5.532;2024-01-07T12:40:37;4.88;;;3.13;;
51556;SDS011;38766;53.194;5.532;2024-01-07T12:43:04;4.32;;;3.13;;
51556;SDS011;38766;53.194;5.532;2024-01-07T12:45:32;6.60;;;2.60;;
51556;SDS011;38766;53.194;5.532;2024-01-07T12:47:58;7.40;;;2.72;;
51556;SDS011;38766;53.194;5.532;2024-01-07T12:50:29;4.03;;;2.65;;
51556;SDS011;38766;53.194;5.532;2024-01-07T12:52:56;3.60;;;2.80;;
51556;SDS011;38766;53.194;5.532;2024-01-07T12:55:22;3.60;;;2.38;;
51556;SDS011;38766;53.194;5.532;2024-01-07T12:57:48;6.72;;;2.70;;
51556;SDS011;38766;53.194;5.532;2024-01-07T13:00:14;3.40;;;2.47;;
51556;SDS011;38766;53.194;5.532;2024-01-07T13:02:40;5.72;;;2.47;;
51556;SDS011;38766;53.194;5.532;2024-01-07T13:05:07;5.82;;;2.47;;
51556;SDS011;38766;53.194;5.532;2024-01-07T13:07:32;4.22;;;2.53;;
51556;SDS011;38766;53.194;5.532;2024-01-07T13:09:58;11.73;;;5.82;;
51556;SDS011;38766;53.194;5.532;2024-01-07T13:12:24;9.10;;;4.38;;
51556;SDS011;38766;53.194;5.532;2024-01-07T13:14:51;12.10;;;5.82;;
51556;SDS011;38766;53.194;5.532;2024-01-07T13:17:17;5.45;;;3.22;;
51556;SDS011;38766;53.194;5.532;2024-01-07T13:19:43;8.93;;;3.67;;
51556;SDS011;38766;53.194;5.532;2024-01-07T13:22:09;7.47;;;3.28;;
51556;SDS011;38766;53.194;5.532;2024-01-07T13:24:35;4.90;;;3.25;;
51556;SDS011;38766;53.194;5.532;2024-01-07T13:27:01;5.07;;;3.45;;
51556;SDS011;38766;53.194;5.532;2024-01-07T13:29:27;13.18;;;5.45;;
51556;SDS011;38766;53.194;5.532;2024-01-07T13:31:53;15.93;;;8.73;;
51556;SDS011;38766;53.194;5.532;2024-01-07T13:34:18;15.75;;;6.65;;
51556;SDS011;38766;53.194;5.532;2024-01-07T13:36:44;52.42;;;15.95;;
51556;SDS011;38766;53.194;5.532;2024-01-07T13:39:10;15.18;;;6.75;;
51556;SDS011;38766;53.194;5.532;2024-01-07T13:41:35;6.57;;;3.80;;
51556;SDS011;38766;53.194;5.532;2024-01-07T13:44:01;5.32;;;3.38;;
51556;SDS011;38766;53.194;5.532;2024-01-07T13:46:28;4.78;;;2.70;;
51556;SDS011;38766;53.194;5.532;2024-01-07T13:48:54;4.53;;;2.40;;
51556;SDS011;38766;53.194;5.532;2024-01-07T13:51:19;8.05;;;3.00;;
51556;SDS011;38766;53.194;5.532;2024-01-07T13:53:45;7.93;;;3.15;;
51556;SDS011;38766;53.194;5.532;2024-01-07T13:56:11;5.57;;;3.20;;
51556;SDS011;38766;53.194;5.532;2024-01-07T13:58:37;5.15;;;3.00;;
51556;SDS011;38766;53.194;5.532;2024-01-07T14:01:03;7.00;;;3.03;;
51556;SDS011;38766;53.194;5.532;2024-01-07T14:03:30;8.10;;;2.92;;
51556;SDS011;38766;53.194;5.532;2024-01-07T14:05:57;4.25;;;2.53;;
51556;SDS011;38766;53.194;5.532;2024-01-07T14:08:23;5.00;;;2.33;;
51556;SDS011;38766;53.194;5.532;2024-01-07T14:10:49;5.97;;;2.35;;
51556;SDS011;38766;53.194;5.532;2024-01-07T14:13:15;7.32;;;2.47;;
51556;SDS011;38766;53.194;5.532;2024-01-07T14:15:41;6.95;;;2.83;;
51556;SDS011;38766;53.194;5.532;2024-01-07T14:18:07;7.80;;;2.78;;
51556;SDS011;38766;53.194;5.532;2024-01-07T14:20:35;9.50;;;2.55;;
51556;SDS011;38766;53.194;5.532;2024-01-07T14:23:00;5.65;;;2.60;;
51556;SDS011;38766;53.194;5.532;2024-01-07T14:25:26;5.28;;;2.60;;
51556;SDS011;38766;53.194;5.532;2024-01-07T14:27:52;4.95;;;2.95;;
51556;SDS011;38766;53.194;5.532;2024-01-07T14:30:17;4.72;;;2.90;;
51556;SDS011;38766;53.194;5.532;2024-01-07T14:32:43;5.90;;;3.05;;
51556;SDS011;38766;53.194;5.532;2024-01-07T14:35:10;18.15;;;7.28;;
51556;SDS011;38766;53.194;5.532;2024-01-07T14:37:37;12.85;;;5.63;;
51556;SDS011;38766;53.194;5.532;2024-01-07T14:40:04;19.55;;;8.02;;
51556;SDS011;38766;53.194;5.532;2024-01-07T14:42:30;17.15;;;7.90;;
51556;SDS011;38766;53.194;5.532;2024-01-07T14:44:56;13.35;;;6.32;;
51556;SDS011;38766;53.194;5.532;2024-01-07T14:47:22;36.03;;;15.13;;